createdAt,value
2023-02-07T00:01:41.368Z,5.65
2023-02-07T00:04:09.786Z,6.07
2023-02-07T00:06:38.640Z,5.65
2023-02-07T00:09:10.082Z,6.18
2023-02-07T00:11:40.901Z,6.00
2023-02-07T00:14:11.463Z,6.10
2023-02-07T00:16:40.166Z,6.32
2023-02-07T00:19:09.141Z,6.38
2023-02-07T00:21:38.126Z,6.47
2023-02-07T00:24:08.535Z,5.90
2023-02-07T00:26:37.111Z,5.80
2023-02-07T00:29:06.517Z,6.25
2023-02-07T00:31:36.753Z,6.15
2023-02-07T00:34:08.344Z,6.90
2023-02-07T00:36:38.678Z,6.13
2023-02-07T00:39:13.882Z,6.20
2023-02-07T00:41:42.980Z,6.00
2023-02-07T00:44:12.599Z,6.25
2023-02-07T00:46:41.086Z,6.60
2023-02-07T00:49:10.019Z,6.10
2023-02-07T00:51:38.966Z,6.68
2023-02-07T00:54:09.541Z,6.85
2023-02-07T00:56:37.996Z,6.70
2023-02-07T00:59:06.487Z,7.85
2023-02-07T01:01:37.265Z,7.47
2023-02-07T01:04:06.442Z,7.90
2023-02-07T01:06:37.089Z,7.30
2023-02-07T01:09:08.617Z,7.45
2023-02-07T01:11:37.060Z,10.75
2023-02-07T01:14:05.349Z,7.88
2023-02-07T01:16:35.810Z,7.65
2023-02-07T01:19:06.562Z,8.00
2023-02-07T01:21:35.347Z,7.80
2023-02-07T01:24:05.517Z,7.75
2023-02-07T01:26:38.066Z,7.80
2023-02-07T01:29:07.024Z,8.13
2023-02-07T01:31:36.943Z,8.13
2023-02-07T01:34:05.915Z,8.07
2023-02-07T01:36:34.313Z,8.27
2023-02-07T01:39:03.876Z,9.55
2023-02-07T01:41:37.236Z,9.23
2023-02-07T01:44:08.906Z,9.23
2023-02-07T01:46:38.286Z,9.75
2023-02-07T01:49:13.509Z,9.70
2023-02-07T01:51:48.544Z,10.38
2023-02-07T01:54:18.389Z,9.57
2023-02-07T01:56:55.209Z,8.85
2023-02-07T01:59:25.720Z,9.93
2023-02-07T02:01:54.171Z,9.60
2023-02-07T02:04:22.960Z,9.05
2023-02-07T02:06:51.695Z,9.68
2023-02-07T02:09:19.994Z,9.32
2023-02-07T02:12:13.017Z,9.15
2023-02-07T02:15:09.025Z,9.52
2023-02-07T02:17:54.995Z,10.27
2023-02-07T02:21:16.710Z,9.43
2023-02-07T02:24:17.581Z,10.75
2023-02-07T02:26:59.872Z,8.32
2023-02-07T02:30:33.623Z,8.90
2023-02-07T02:33:32.227Z,9.20
2023-02-07T02:36:12.013Z,10.23
2023-02-07T02:38:47.148Z,10.20
2023-02-07T02:41:20.563Z,10.05
2023-02-07T02:43:55.667Z,10.82
2023-02-07T02:46:26.408Z,11.30
2023-02-07T02:48:59.507Z,9.57
2023-02-07T02:51:30.437Z,10.77
2023-02-07T02:54:01.135Z,10.90
2023-02-07T02:57:03.905Z,11.98
2023-02-07T02:59:56.138Z,11.23
2023-02-07T03:02:34.308Z,10.43
2023-02-07T03:05:29.631Z,9.43
2023-02-07T03:08:11.766Z,11.73
2023-02-07T03:10:50.466Z,11.00
2023-02-07T03:13:24.768Z,11.23
2023-02-07T03:16:06.051Z,11.43
2023-02-07T03:18:46.461Z,12.10
2023-02-07T03:21:22.261Z,11.90
2023-02-07T03:23:53.707Z,12.13
2023-02-07T03:26:25.165Z,12.68
2023-02-07T03:28:57.678Z,11.68
2023-02-07T03:31:28.764Z,11.85
2023-02-07T03:34:04.432Z,11.88
2023-02-07T03:36:41.623Z,10.82
2023-02-07T03:39:10.390Z,12.80
2023-02-07T03:41:45.883Z,10.82
2023-02-07T03:44:18.152Z,10.93
2023-02-07T03:46:46.664Z,11.38
2023-02-07T03:49:17.570Z,11.35
2023-02-07T03:51:47.796Z,10.85
2023-02-07T03:54:16.519Z,11.50
2023-02-07T03:56:45.380Z,11.57
2023-02-07T03:59:14.064Z,11.77
2023-02-07T04:01:43.367Z,11.25
2023-02-07T04:04:12.904Z,11.68
2023-02-07T04:06:41.768Z,11.43
2023-02-07T04:09:12.013Z,11.85
2023-02-07T04:11:40.710Z,11.23
2023-02-07T04:14:09.159Z,10.77
2023-02-07T04:16:37.570Z,11.10
2023-02-07T04:19:06.045Z,11.85
2023-02-07T04:21:35.048Z,12.35
2023-02-07T04:24:03.821Z,11.48
2023-02-07T04:26:33.529Z,12.20
2023-02-07T04:29:02.556Z,11.20
2023-02-07T04:31:31.037Z,11.68
2023-02-07T04:33:59.415Z,11.65
2023-02-07T04:36:29.555Z,17.00
2023-02-07T04:38:58.271Z,11.80
2023-02-07T04:41:26.594Z,11.52
2023-02-07T04:43:57.068Z,14.43
2023-02-07T04:46:25.570Z,13.57
2023-02-07T04:48:54.037Z,11.95
2023-02-07T04:51:22.398Z,11.38
2023-02-07T04:53:50.726Z,10.98
2023-02-07T04:56:19.058Z,12.02
2023-02-07T04:58:47.931Z,12.45
2023-02-07T05:01:18.069Z,11.18
2023-02-07T05:03:46.474Z,11.02
2023-02-07T05:06:17.748Z,11.82
2023-02-07T05:08:46.195Z,11.43
2023-02-07T05:11:15.185Z,11.05
2023-02-07T05:13:44.040Z,11.32
2023-02-07T05:16:12.396Z,11.82
2023-02-07T05:18:42.325Z,14.57
2023-02-07T05:21:11.411Z,12.52
2023-02-07T05:23:39.764Z,11.25
2023-02-07T05:26:08.127Z,10.90
2023-02-07T05:28:36.480Z,11.40
2023-02-07T05:31:05.137Z,11.40
2023-02-07T05:33:32.515Z,10.85
2023-02-07T05:36:03.036Z,11.13
2023-02-07T05:38:31.927Z,11.60
2023-02-07T05:41:00.268Z,11.80
2023-02-07T05:43:28.870Z,11.32
2023-02-07T05:45:57.297Z,12.35
2023-02-07T05:48:25.690Z,13.63
2023-02-07T05:50:54.145Z,12.35
2023-02-07T05:53:23.925Z,11.88
2023-02-07T05:55:53.421Z,11.55
2023-02-07T05:58:21.723Z,10.98
2023-02-07T06:00:50.070Z,13.95
2023-02-07T06:03:18.450Z,11.68
2023-02-07T06:05:46.780Z,12.02
2023-02-07T06:08:15.283Z,12.90
2023-02-07T06:10:44.987Z,12.95
2023-02-07T06:13:13.510Z,11.57
2023-02-07T06:15:42.162Z,10.73
2023-02-07T06:18:10.766Z,9.68
2023-02-07T06:20:39.205Z,11.65
2023-02-07T06:23:07.780Z,11.82
2023-02-07T06:25:36.403Z,11.00
2023-02-07T06:28:06.645Z,10.13
2023-02-07T06:30:35.097Z,10.27
2023-02-07T06:33:03.521Z,10.18
2023-02-07T06:35:31.842Z,10.20
2023-02-07T06:38:00.324Z,10.60
2023-02-07T06:40:28.711Z,10.75
2023-02-07T06:42:57.200Z,11.27
2023-02-07T06:45:26.887Z,13.25
2023-02-07T06:47:55.435Z,11.77
2023-02-07T06:50:23.911Z,11.00
2023-02-07T06:52:52.679Z,10.60
2023-02-07T06:55:20.918Z,10.68
2023-02-07T06:57:49.419Z,10.60
2023-02-07T07:00:20.660Z,10.55
2023-02-07T07:02:50.638Z,10.23
2023-02-07T07:05:19.394Z,10.07
2023-02-07T07:07:47.773Z,10.60
2023-02-07T07:10:16.700Z,10.27
2023-02-07T07:12:47.367Z,10.65
2023-02-07T07:15:16.380Z,10.25
2023-02-07T07:17:44.934Z,10.55
2023-02-07T07:20:14.799Z,14.98
2023-02-07T07:22:43.497Z,10.75
2023-02-07T07:25:12.497Z,9.52
2023-02-07T07:27:40.897Z,9.63
2023-02-07T07:30:11.437Z,8.68
2023-02-07T07:32:40.125Z,8.35
2023-02-07T07:35:09.400Z,9.40
2023-02-07T07:37:39.093Z,8.68
2023-02-07T07:40:08.906Z,8.10
2023-02-07T07:42:37.478Z,8.68
2023-02-07T07:45:22.454Z,8.32
2023-02-07T07:47:51.064Z,9.32
2023-02-07T07:50:19.903Z,8.88
2023-02-07T07:52:49.762Z,8.90
2023-02-07T07:55:18.263Z,9.30
2023-02-07T07:57:46.803Z,8.80
2023-02-07T08:00:16.237Z,8.40
2023-02-07T08:02:44.917Z,8.50
2023-02-07T08:05:13.948Z,8.63
2023-02-07T08:07:42.430Z,9.90
2023-02-07T08:10:12.193Z,10.52
2023-02-07T08:12:42.652Z,9.10
2023-02-07T08:15:13.831Z,9.57
2023-02-07T08:17:42.460Z,9.20
2023-02-07T08:20:12.556Z,8.98
2023-02-07T08:22:41.035Z,9.00
2023-02-07T08:25:11.416Z,8.18
2023-02-07T08:27:40.470Z,8.65
2023-02-07T08:30:12.013Z,8.32
2023-02-07T08:32:41.012Z,9.05
2023-02-07T08:35:10.378Z,8.98
2023-02-07T08:37:39.676Z,8.10
2023-02-07T08:40:11.234Z,8.57
2023-02-07T08:42:39.627Z,8.90
2023-02-07T08:45:09.514Z,7.30
2023-02-07T08:47:38.063Z,8.38
2023-02-07T08:50:08.103Z,8.48
2023-02-07T08:52:36.667Z,8.55
2023-02-07T08:55:05.712Z,8.77
2023-02-07T08:57:35.558Z,9.40
2023-02-07T09:00:05.332Z,7.97
2023-02-07T09:02:34.130Z,8.30
2023-02-07T09:05:03.117Z,8.70
2023-02-07T09:07:31.657Z,8.05
2023-02-07T09:09:59.890Z,7.38
2023-02-07T09:12:28.224Z,8.43
2023-02-07T09:14:58.190Z,8.15
2023-02-07T09:17:26.854Z,7.93
2023-02-07T09:19:55.392Z,7.85
2023-02-07T09:22:23.824Z,7.65
2023-02-07T09:24:52.182Z,8.40
2023-02-07T09:27:20.614Z,8.80
2023-02-07T09:29:48.904Z,8.80
2023-02-07T09:32:18.758Z,8.07
2023-02-07T09:34:47.191Z,8.50
2023-02-07T09:37:15.720Z,8.57
2023-02-07T09:39:44.627Z,10.10
2023-02-07T09:42:24.243Z,9.60
2023-02-07T09:45:00.949Z,8.85
2023-02-07T09:47:32.674Z,8.77
2023-02-07T09:50:05.049Z,9.02
2023-02-07T09:52:38.856Z,8.68
2023-02-07T09:55:16.548Z,8.40
2023-02-07T09:57:49.412Z,8.88
2023-02-07T10:00:24.874Z,8.73
2023-02-07T10:03:00.060Z,9.15
2023-02-07T10:05:40.284Z,9.35
2023-02-07T10:08:12.893Z,8.95
2023-02-07T10:10:46.259Z,10.27
2023-02-07T10:13:31.065Z,9.88
2023-02-07T10:16:21.059Z,7.50
2023-02-07T10:18:56.808Z,8.88
2023-02-07T10:21:34.765Z,9.48
2023-02-07T10:24:33.052Z,8.00
2023-02-07T10:27:10.388Z,9.02
2023-02-07T10:29:57.768Z,10.95
2023-02-07T10:32:31.381Z,9.98
2023-02-07T10:35:06.387Z,8.93
2023-02-07T10:40:15.616Z,9.32
2023-02-07T10:42:49.529Z,10.13
2023-02-07T10:45:19.712Z,9.10
2023-02-07T10:47:48.352Z,9.20
2023-02-07T10:50:29.828Z,8.75
2023-02-07T10:53:00.713Z,10.00
2023-02-07T10:55:40.113Z,9.13
2023-02-07T10:58:22.874Z,8.73
2023-02-07T11:00:55.013Z,8.65
2023-02-07T11:03:25.370Z,10.77
2023-02-07T11:05:59.711Z,10.20
2023-02-07T11:08:30.612Z,9.75
2023-02-07T11:11:01.436Z,10.70
2023-02-07T11:13:32.658Z,9.80
2023-02-07T11:16:06.145Z,9.82
2023-02-07T11:18:45.522Z,8.95
2023-02-07T11:21:32.151Z,8.98
2023-02-07T11:24:05.543Z,8.95
2023-02-07T11:26:36.792Z,8.52
2023-02-07T11:29:15.307Z,9.82
2023-02-07T11:31:46.163Z,8.45
2023-02-07T11:34:45.850Z,9.15
2023-02-07T11:37:27.081Z,8.30
2023-02-07T11:39:57.845Z,8.75
2023-02-07T11:42:32.301Z,9.20
2023-02-07T11:45:06.137Z,9.80
2023-02-07T11:47:38.174Z,9.88
2023-02-07T11:50:08.838Z,9.13
2023-02-07T11:52:40.909Z,8.77
2023-02-07T11:55:19.487Z,9.00
2023-02-07T11:57:48.372Z,9.10
2023-02-07T12:00:25.779Z,9.27
2023-02-07T12:03:02.909Z,8.88
2023-02-07T12:05:36.692Z,8.95
2023-02-07T12:08:13.584Z,8.20
2023-02-07T12:10:47.014Z,8.35
2023-02-07T12:13:19.859Z,7.65
2023-02-07T12:15:52.917Z,7.65
2023-02-07T12:18:30.650Z,8.10
2023-02-07T12:21:06.135Z,7.72
2023-02-07T12:23:46.972Z,7.45
2023-02-07T12:26:25.144Z,8.45
2023-02-07T12:29:13.843Z,7.65
2023-02-07T12:31:52.562Z,8.63
2023-02-07T12:34:29.210Z,7.60
2023-02-07T12:37:05.561Z,7.70
2023-02-07T12:39:43.172Z,7.00
2023-02-07T12:42:36.890Z,7.55
2023-02-07T12:45:07.157Z,6.88
2023-02-07T12:47:45.760Z,6.95
2023-02-07T12:50:31.414Z,7.47
2023-02-07T12:53:12.346Z,6.25
2023-02-07T12:55:55.849Z,6.88
2023-02-07T12:58:49.758Z,6.68
2023-02-07T13:01:25.871Z,6.70
2023-02-07T13:04:33.974Z,6.22
2023-02-07T13:07:10.602Z,6.50
2023-02-07T13:09:46.412Z,6.50
2023-02-07T13:12:20.860Z,6.25
2023-02-07T13:15:06.844Z,6.10
2023-02-07T13:17:42.715Z,6.30
2023-02-07T13:20:31.251Z,5.88
2023-02-07T13:23:02.758Z,6.43
2023-02-07T13:25:33.430Z,5.57
2023-02-07T13:28:08.159Z,5.40
2023-02-07T13:30:37.736Z,6.90
2023-02-07T13:33:14.049Z,5.63
2023-02-07T13:35:43.058Z,6.10
2023-02-07T13:38:24.688Z,5.82
2023-02-07T13:41:03.049Z,5.38
2023-02-07T13:43:50.867Z,6.40
2023-02-07T13:46:47.634Z,4.80
2023-02-07T13:49:23.313Z,5.32
2023-02-07T13:52:00.623Z,5.50
2023-02-07T13:54:41.217Z,5.22
2023-02-07T13:57:39.784Z,5.25
2023-02-07T14:00:19.388Z,5.53
2023-02-07T14:02:52.098Z,5.40
2023-02-07T14:05:28.142Z,5.25
2023-02-07T14:08:01.115Z,6.40
2023-02-07T14:10:51.959Z,5.10
2023-02-07T14:13:30.623Z,4.82
2023-02-07T14:16:12.064Z,5.40
2023-02-07T14:18:47.278Z,5.53
2023-02-07T14:21:33.407Z,4.90
2023-02-07T14:24:32.309Z,6.20
2023-02-07T14:27:05.958Z,4.70
2023-02-07T14:29:57.316Z,5.70
2023-02-07T14:33:11.730Z,4.70
2023-02-07T14:36:04.164Z,4.95
2023-02-07T14:38:38.022Z,4.97
2023-02-07T14:41:11.789Z,5.13
2023-02-07T14:44:03.304Z,4.57
2023-02-07T14:46:40.264Z,4.20
2023-02-07T14:49:18.121Z,4.45
2023-02-07T14:51:49.824Z,6.70
2023-02-07T14:54:26.673Z,4.93
2023-02-07T14:57:06.107Z,4.82
2023-02-07T14:59:40.380Z,4.43
2023-02-07T15:02:31.628Z,4.82
2023-02-07T15:05:21.181Z,4.03
2023-02-07T15:07:56.571Z,4.50
2023-02-07T15:10:29.070Z,5.10
2023-02-07T15:12:58.124Z,4.82
2023-02-07T15:15:30.623Z,4.60
2023-02-07T15:18:02.326Z,4.40
2023-02-07T15:20:34.416Z,4.70
2023-02-07T15:23:07.277Z,5.07
2023-02-07T15:25:36.575Z,4.97
2023-02-07T15:28:12.968Z,4.90
2023-02-07T15:31:01.052Z,4.70
2023-02-07T15:33:36.593Z,4.90
2023-02-07T15:36:28.804Z,4.88
2023-02-07T15:39:00.995Z,4.72
2023-02-07T15:41:29.938Z,5.20
2023-02-07T15:44:01.453Z,5.43
2023-02-07T15:46:49.413Z,5.20
2023-02-07T15:49:28.569Z,4.70
2023-02-07T15:52:05.054Z,3.97
2023-02-07T15:54:39.583Z,4.30
2023-02-07T15:57:17.988Z,3.80
2023-02-07T15:59:46.225Z,4.70
2023-02-07T16:02:26.084Z,4.57
2023-02-07T16:04:54.459Z,3.92
2023-02-07T16:07:26.268Z,4.25
2023-02-07T16:09:54.649Z,4.22
2023-02-07T16:12:32.424Z,5.35
2023-02-07T16:15:02.743Z,4.47
2023-02-07T16:17:42.343Z,4.43
2023-02-07T16:20:15.668Z,4.45
2023-02-07T16:22:46.320Z,5.30
2023-02-07T16:25:19.274Z,5.50
2023-02-07T16:27:50.214Z,4.32
2023-02-07T16:30:22.287Z,5.03
2023-02-07T16:32:50.961Z,5.40
2023-02-07T16:35:22.207Z,4.80
2023-02-07T16:37:52.910Z,5.32
2023-02-07T16:40:22.322Z,5.70
2023-02-07T16:42:51.527Z,5.03
2023-02-07T16:45:22.452Z,5.40
2023-02-07T16:47:50.845Z,4.93
2023-02-07T16:50:21.875Z,5.07
2023-02-07T16:52:54.713Z,5.30
2023-02-07T16:55:22.980Z,7.00
2023-02-07T16:57:51.304Z,9.20
2023-02-07T17:00:22.677Z,5.55
2023-02-07T17:02:52.764Z,5.45
2023-02-07T17:05:22.960Z,4.78
2023-02-07T17:07:52.626Z,5.00
2023-02-07T17:10:25.111Z,4.95
2023-02-07T17:12:54.254Z,5.40
2023-02-07T17:15:23.119Z,5.70
2023-02-07T17:17:53.046Z,5.72
2023-02-07T17:20:25.594Z,5.18
2023-02-07T17:22:56.482Z,5.05
2023-02-07T17:25:29.268Z,5.50
2023-02-07T17:27:58.951Z,6.00
2023-02-07T17:30:30.224Z,5.85
2023-02-07T17:32:58.953Z,12.65
2023-02-07T17:35:28.753Z,10.63
2023-02-07T17:38:00.250Z,6.88
2023-02-07T17:40:31.563Z,5.78
2023-02-07T17:43:00.361Z,5.90
2023-02-07T17:45:30.441Z,6.38
2023-02-07T17:47:59.037Z,5.65
2023-02-07T17:50:31.513Z,8.18
2023-02-07T17:53:02.345Z,5.57
2023-02-07T17:55:32.336Z,6.00
2023-02-07T17:58:02.192Z,6.25
2023-02-07T18:00:33.626Z,7.78
2023-02-07T18:03:02.255Z,6.55
2023-02-07T18:05:31.823Z,5.78
2023-02-07T18:08:01.585Z,5.85
2023-02-07T18:10:33.114Z,8.50
2023-02-07T18:13:02.464Z,6.93
2023-02-07T18:15:31.294Z,6.25
2023-02-07T18:17:59.923Z,10.23
2023-02-07T18:20:33.700Z,8.20
2023-02-07T18:23:04.135Z,7.82
2023-02-07T18:25:32.759Z,6.97
2023-02-07T18:28:01.585Z,6.47
2023-02-07T18:30:31.058Z,6.50
2023-02-07T18:33:00.056Z,5.90
2023-02-07T18:35:28.731Z,6.38
2023-02-07T18:37:56.986Z,6.80
2023-02-07T18:40:26.935Z,7.30
2023-02-07T18:42:56.603Z,7.05
2023-02-07T18:45:25.724Z,7.30
2023-02-07T18:47:54.281Z,6.57
2023-02-07T18:50:23.364Z,7.47
2023-02-07T18:52:52.520Z,6.75
2023-02-07T18:55:21.388Z,6.90
2023-02-07T18:57:51.559Z,6.70
2023-02-07T19:00:21.286Z,7.28
2023-02-07T19:02:49.990Z,6.68
2023-02-07T19:05:18.635Z,6.82
2023-02-07T19:07:47.750Z,11.65
2023-02-07T19:10:17.099Z,7.43
2023-02-07T19:12:45.828Z,7.15
2023-02-07T19:15:16.103Z,9.55
2023-02-07T19:17:44.986Z,9.15
2023-02-07T19:20:13.756Z,7.80
2023-02-07T19:22:42.728Z,11.15
2023-02-07T19:25:11.270Z,9.45
2023-02-07T19:27:39.921Z,8.55
2023-02-07T19:30:10.014Z,8.60
2023-02-07T19:32:40.638Z,8.80
2023-02-07T19:35:09.626Z,9.85
2023-02-07T19:37:37.948Z,14.35
2023-02-07T19:40:07.589Z,9.60
2023-02-07T19:42:36.120Z,8.23
2023-02-07T19:45:04.966Z,8.70
2023-02-07T19:47:33.328Z,7.60
2023-02-07T19:50:06.109Z,8.50
2023-02-07T19:52:34.566Z,8.40
2023-02-07T19:55:02.991Z,9.32
2023-02-07T19:57:33.371Z,8.70
2023-02-07T20:00:01.960Z,9.02
2023-02-07T20:02:33.235Z,8.70
2023-02-07T20:05:03.119Z,8.10
2023-02-07T20:07:31.417Z,8.07
2023-02-07T20:10:01.011Z,8.98
2023-02-07T20:12:29.566Z,8.13
2023-02-07T20:14:57.934Z,8.63
2023-02-07T20:17:26.585Z,8.68
2023-02-07T20:19:54.963Z,8.35
2023-02-07T20:22:24.646Z,8.35
2023-02-07T20:24:55.250Z,9.02
2023-02-07T20:27:29.992Z,10.00
2023-02-07T20:29:58.794Z,8.20
2023-02-07T20:32:27.056Z,9.32
2023-02-07T20:34:55.469Z,8.73
2023-02-07T20:37:25.104Z,9.73
2023-02-07T20:39:53.432Z,11.57
2023-02-07T20:42:21.767Z,10.93
2023-02-07T20:44:50.087Z,9.75
2023-02-07T20:47:18.460Z,10.27
2023-02-07T20:49:46.741Z,25.13
2023-02-07T20:52:15.177Z,17.83
2023-02-07T20:54:45.163Z,15.23
2023-02-07T20:57:13.606Z,13.30
2023-02-07T20:59:42.737Z,14.73
2023-02-07T21:02:12.284Z,15.63
2023-02-07T21:04:41.826Z,14.30
2023-02-07T21:07:11.051Z,12.90
2023-02-07T21:09:39.965Z,16.67
2023-02-07T21:12:10.289Z,15.35
2023-02-07T21:14:38.666Z,22.15
2023-02-07T21:17:07.865Z,21.23
2023-02-07T21:19:37.744Z,13.63
2023-02-07T21:22:07.099Z,10.43
2023-02-07T21:24:35.703Z,10.35
2023-02-07T21:27:05.177Z,11.02
2023-02-07T21:29:36.563Z,12.05
2023-02-07T21:32:05.305Z,9.65
2023-02-07T21:34:33.779Z,10.98
2023-02-07T21:37:02.239Z,11.07
2023-02-07T21:39:30.674Z,10.48
2023-02-07T21:41:59.924Z,10.88
2023-02-07T21:44:29.714Z,11.05
2023-02-07T21:46:59.502Z,12.60
2023-02-07T21:49:27.842Z,11.95
2023-02-07T21:51:56.264Z,11.68
2023-02-07T21:54:24.787Z,10.50
2023-02-07T21:56:53.198Z,11.27
2023-02-07T21:59:22.797Z,16.63
2023-02-07T22:01:52.138Z,15.45
2023-02-07T22:04:22.368Z,12.15
2023-02-07T22:06:51.349Z,10.35
2023-02-07T22:09:22.495Z,10.75
2023-02-07T22:11:52.074Z,10.32
2023-02-07T22:14:21.494Z,10.95
2023-02-07T22:16:52.406Z,10.95
2023-02-07T22:19:22.944Z,11.23
2023-02-07T22:21:51.943Z,11.65
2023-02-07T22:24:21.780Z,11.40
2023-02-07T22:26:50.305Z,11.20
2023-02-07T22:29:18.572Z,10.93
2023-02-07T22:31:47.108Z,10.57
2023-02-07T22:34:16.415Z,11.02
2023-02-07T22:36:47.368Z,10.82
2023-02-07T22:39:18.211Z,10.85
2023-02-07T22:41:47.708Z,10.85
2023-02-07T22:44:16.185Z,10.60
2023-02-07T22:46:44.681Z,10.82
2023-02-07T22:49:13.025Z,11.10
2023-02-07T22:51:41.356Z,9.98
2023-02-07T22:54:18.296Z,9.68
2023-02-07T22:56:47.253Z,10.57
2023-02-07T22:59:15.940Z,9.75
2023-02-07T23:01:45.353Z,10.07
2023-02-07T23:04:17.576Z,9.90
2023-02-07T23:06:46.937Z,10.60
2023-02-07T23:09:17.207Z,11.60
2023-02-07T23:11:45.908Z,10.95
2023-02-07T23:14:16.493Z,10.93
2023-02-07T23:16:44.838Z,45.15
2023-02-07T23:19:16.299Z,23.55
2023-02-07T23:21:45.570Z,13.25
2023-02-07T23:24:14.295Z,11.77
2023-02-07T23:26:44.220Z,12.20
2023-02-07T23:29:12.533Z,11.23
2023-02-07T23:31:40.854Z,11.75
2023-02-07T23:34:10.214Z,11.15
2023-02-07T23:36:39.708Z,10.00
2023-02-07T23:39:08.471Z,9.75
2023-02-07T23:41:37.561Z,10.35
2023-02-07T23:44:07.342Z,10.77
2023-02-07T23:46:36.249Z,9.85
2023-02-07T23:49:05.296Z,9.35
2023-02-07T23:51:33.845Z,9.43
2023-02-07T23:54:02.884Z,9.85
2023-02-07T23:56:31.434Z,9.93
2023-02-07T23:58:59.839Z,9.63
